Wednesday, November 22, 2017, 11:39 AM EST
Back to Local

KCQX, Chatham Municipal Airport

Location: Chatham, MA, United States Lat: 41.683
Local Time: 11:39 AM EST (16:39 GMT) Lon: -70
Time Zone: US/Eastern Elev: 68 ft

Show me the last for .
Show Decoded

2017-11-22 11:22 METAR KCQX 221622Z AUTO 00000KT 3SM -RA BR BKN008 OVC013 13/13 A2988 RMK AO2 CIG
                 006V010 P0015 T01330133 =
2017-11-22 11:13 METAR KCQX 221613Z AUTO 00000KT 1 1/4SM +RA BR OVC008 13/13 A2988 RMK AO2 CIG
                 006V011 P0014 T01330133 =
2017-11-22 11:06 METAR KCQX 221606Z AUTO 33006KT 3/4SM +RA BR OVC007 13/13 A2989 RMK AO2 CIG
                 006V012 PRESFR P0010 T01330133 =
2017-11-22 10:52 METAR KCQX 221552Z AUTO 25004KT 1 3/4SM -RA BR BKN008 OVC042 13/13 A2991 RMK AO2
                 VIS 3/4V4 SLP128 P0014 T01330133 =
2017-11-22 10:44 METAR KCQX 221544Z AUTO VRB03KT 5SM -RA BR BKN008 BKN040 OVC050 13/13 A2991 RMK
                 AO2 P0011 T01330133 =
2017-11-22 10:32 METAR KCQX 221532Z AUTO 00000KT 3SM -RA BR SCT007 BKN040 OVC050 13/13 A2992 RMK
                 AO2 P0010 T01330128 =
2017-11-22 10:22 METAR KCQX 221522Z AUTO VRB04KT 3SM -RA BR BKN038 BKN047 OVC055 14/14 A2992 RMK
                 AO2 P0010 T01390139 =
2017-11-22 10:17 METAR KCQX 221517Z AUTO VRB06KT 1 3/4SM -RA BR BKN038 BKN047 OVC055 14/14 A2991
                 RMK AO2 P0009 T01390139 =
2017-11-22 09:52 METAR KCQX 221452Z AUTO 19007KT 2 1/2SM RA BR BKN037 BKN044 OVC075 13/12 A2993
                 RMK AO2 SLP134 P0004 60004 T01280122 58018 =
2017-11-22 08:52 METAR KCQX 221352Z AUTO 18010G23KT 10SM -RA BKN075 OVC100 13/12 A2994 RMK AO2
                 RAB49 SLP140 P0000 T01330122 =
2017-11-22 07:52 METAR KCQX 221252Z AUTO 17011G19KT 10SM FEW060 SCT080 BKN110 13/12 A2996 RMK AO2
                 SLP147 T01330122 =
2017-11-22 06:52 METAR KCQX 221152Z AUTO 17008G18KT 10SM OVC065 13/12 A2998 RMK AO2 SLP152 60000
                 T01280117 10139 20117 58024 =
2017-11-22 05:52 METAR KCQX 221052Z AUTO VRB06KT 10SM FEW022 SCT044 BKN055 13/12 A3001 RMK AO2
                 RAB16E44 SLP162 P0000 T01330117 =
2017-11-22 05:39 METAR KCQX 221039Z AUTO VRB03KT 10SM -RA SCT020 BKN040 OVC060 13/12 A3001 RMK
                 AO2 RAB16 PRESFR P0000 T01330122 =
2017-11-22 05:31 METAR KCQX 221031Z AUTO VRB05KT 10SM -RA FEW018 BKN023 OVC060 13/12 A3003 RMK
                 AO2 RAB16 P0000 T01330122 =
2017-11-22 04:52 METAR KCQX 220952Z AUTO 23005KT 10SM BKN070 OVC085 13/12 A3004 RMK AO2 RAB32E44
                 SLP174 P0000 T01330117 =
2017-11-22 03:52 METAR KCQX 220852Z AUTO 23003KT 10SM FEW060 BKN085 13/11 A3005 RMK AO2 SLP176
                 T01280111 58010 =
2017-11-22 02:52 METAR KCQX 220752Z AUTO 22003KT 10SM SCT060 OVC080 12/11 A3006 RMK AO2 SLP180
                 T01220111 =
2017-11-22 01:52 METAR KCQX 220652Z AUTO VRB03KT 9SM FEW022 OVC070 12/11 A3007 RMK AO2 SLP185
                 T01170106 =
2017-11-22 00:52 METAR KCQX 220552Z AUTO 23004KT 10SM BKN060 12/10 A3008 RMK AO2 SLP186 T01170100
                 10122 20106 58001 =
2017-11-21 23:52 METAR KCQX 220452Z AUTO 21005KT 10SM OVC055 12/09 A3009 RMK AO2 SLP189 T01170094
                 401390033 =
2017-11-21 22:52 METAR KCQX 220352Z AUTO 23007KT 10SM CLR 12/09 A3009 RMK AO2 SLP189 T01170089 =
2017-11-21 21:52 METAR KCQX 220252Z AUTO 22007KT 190V250 10SM CLR 12/08 A3008 RMK AO2 SLP187
                 T01170083 55000 =
2017-11-21 20:52 METAR KCQX 220152Z AUTO 22007G16KT 10SM CLR 11/08 A3008 RMK AO2 SLP185 T01110078
                 =
2017-11-21 19:52 METAR KCQX 220052Z AUTO 21008G14KT 10SM CLR 11/08 A3007 RMK AO2 SLP184 T01110078
                 =
2017-11-21 18:52 METAR KCQX 212352Z AUTO 22010KT 10SM CLR 11/08 A3008 RMK AO2 SLP187 T01110078
                 10133 20106 58003 =
2017-11-21 17:52 METAR KCQX 212252Z AUTO 21008G15KT 10SM CLR 11/08 A3010 RMK AO2 SLP194 T01110078
                 =
2017-11-21 16:52 METAR KCQX 212152Z AUTO 22008G18KT 10SM CLR 11/08 A3009 RMK AO2 SLP191 T01110078
                 =
2017-11-21 15:52 METAR KCQX 212052Z AUTO 22010G19KT 10SM CLR 12/08 A3009 RMK AO2 SLP191 T01170078
                 56008 =
2017-11-21 14:52 METAR KCQX 211952Z AUTO 22010G22KT 10SM CLR 12/08 A3009 RMK AO2 SLP191 T01220078
                 =
2017-11-21 13:52 METAR KCQX 211852Z AUTO 22009G23KT 10SM CLR 13/08 A3010 RMK AO2 SLP193 T01280083
                 =
2017-11-21 12:52 METAR KCQX 211752Z AUTO 21011G22KT 10SM CLR 13/07 A3011 RMK AO2 PK WND
                 21026/1708 SLP199 T01330072 10139 20083 56021 =
2017-11-21 11:52 METAR KCQX 211652Z AUTO 23011G20KT 10SM CLR 14/07 A3013 RMK AO2 SLP204 T01390072
                 =

Support USWX by starting your Amazon purchase here.